Aérodrome :
LOGIN :

S'inscrire | Disclaimer

   EN    FR    IT 

 










Légende :    VFR   VFR Marginal   IFR   IFR Intensif   IFR Très Intensif
Visi : 
Plafond : 
>= 8 km
>= 3000ft
5 à 8 km
1000 à 3000 ft
1500m à 5 km
500 à 1000 ft
800 à 1500m
200 à 500 ft
< 800m
< 200 ft
Symboles :   Orages  Brouillard  Fortes neiges  Fortes précipitations  Vent > 20 kt
SIGMETs :   Divers  Orages  Givrage  Turbulence  Onde Orograph.  Cendres Volcan.






- Altitude de l'aérodrome : 8 ft
- Code IATA : LCA


LCLK - Larnaca Int.

DERNIER METAR :
  • 192030Z VRB02KT 9999 FEW020 08/04 Q1014 NOSIG

METARs EXPIRÉS :
  • 192000Z 31003KT 290V350 9999 FEW020 SCT070 08/05 Q1014 NOSIG
  • 191930Z 34006KT 9999 FEW020 SCT070 08/05 Q1014 NOSIG
  • 191900Z 24008KT 9999 FEW020 SCT070 09/05 Q1014 NOSIG
  • 191830Z 24010KT 9999 FEW020 SCT070 09/06 Q1014 NOSIG
  • 191800Z 22013KT 9999 FEW020 09/06 Q1014 NOSIG

TAF TAF LCLK
Valide du 19 à 18h jusqu'au 20 à 18h UTC


191730Z 1918/2018 29008KT 9999 FEW020 BKN050
PROB30
TEMPO 1918/2003 5000 SHRA
BECMG 2003/2007 35014KT



MET'MAP, la Météo Aéronautique d'un coup d'oeil ! - Copyright ORBIFLY Décembre 2007 - Disclaimer

ORBIFLY MET'MAP TEAM :

Programmation & Développement : Alexandra Zaïnal
Sur une idée originale de : Baudouin d'Aumeries
Assistance à la programmation : Marc-Olivier Méhu
Soutien technique & logistique : Manuel Goepfert

Contact : metmap@orbifly.com




SOURCES & CREDITS :

   NOAA